sensor_id;sensor_type;location;lat;lon;timestamp;P1;durP1;ratioP1;P2;durP2;ratioP2
19675;SDS011;39539;52.202;9.876;2024-02-04T00:01:14;5.90;;;5.40;;
19675;SDS011;39539;52.202;9.876;2024-02-04T00:03:40;5.78;;;5.28;;
19675;SDS011;39539;52.202;9.876;2024-02-04T00:06:05;5.38;;;4.93;;
19675;SDS011;39539;52.202;9.876;2024-02-04T00:08:31;6.13;;;5.53;;
19675;SDS011;39539;52.202;9.876;2024-02-04T00:10:57;5.50;;;5.10;;
19675;SDS011;39539;52.202;9.876;2024-02-04T00:13:22;5.18;;;4.68;;
19675;SDS011;39539;52.202;9.876;2024-02-04T00:15:48;6.28;;;4.57;;
19675;SDS011;39539;52.202;9.876;2024-02-04T00:18:13;5.00;;;4.60;;
19675;SDS011;39539;52.202;9.876;2024-02-04T00:20:39;4.57;;;4.18;;
19675;SDS011;39539;52.202;9.876;2024-02-04T00:23:04;5.47;;;4.22;;
19675;SDS011;39539;52.202;9.876;2024-02-04T00:25:29;4.97;;;4.18;;
19675;SDS011;39539;52.202;9.876;2024-02-04T00:27:55;4.93;;;4.53;;
19675;SDS011;39539;52.202;9.876;2024-02-04T00:30:20;4.97;;;4.43;;
19675;SDS011;39539;52.202;9.876;2024-02-04T00:32:46;5.25;;;4.75;;
19675;SDS011;39539;52.202;9.876;2024-02-04T00:35:11;5.75;;;5.00;;
19675;SDS011;39539;52.202;9.876;2024-02-04T00:37:36;6.25;;;5.65;;
19675;SDS011;39539;52.202;9.876;2024-02-04T00:40:02;6.75;;;6.20;;
19675;SDS011;39539;52.202;9.876;2024-02-04T00:42:27;6.57;;;5.97;;
19675;SDS011;39539;52.202;9.876;2024-02-04T00:44:53;5.97;;;5.47;;
19675;SDS011;39539;52.202;9.876;2024-02-04T00:47:18;5.65;;;5.10;;
19675;SDS011;39539;52.202;9.876;2024-02-04T00:49:43;5.53;;;4.88;;
19675;SDS011;39539;52.202;9.876;2024-02-04T00:52:09;4.97;;;4.00;;
19675;SDS011;39539;52.202;9.876;2024-02-04T00:54:34;5.60;;;4.75;;
19675;SDS011;39539;52.202;9.876;2024-02-04T00:56:59;5.72;;;5.13;;
19675;SDS011;39539;52.202;9.876;2024-02-04T00:59:25;5.72;;;5.22;;
19675;SDS011;39539;52.202;9.876;2024-02-04T01:01:50;6.63;;;5.25;;
19675;SDS011;39539;52.202;9.876;2024-02-04T01:04:16;6.05;;;5.40;;
19675;SDS011;39539;52.202;9.876;2024-02-04T01:06:41;5.78;;;4.82;;
19675;SDS011;39539;52.202;9.876;2024-02-04T01:09:07;7.00;;;6.30;;
19675;SDS011;39539;52.202;9.876;2024-02-04T01:11:32;7.05;;;6.35;;
19675;SDS011;39539;52.202;9.876;2024-02-04T01:13:57;6.05;;;5.40;;
19675;SDS011;39539;52.202;9.876;2024-02-04T01:16:23;6.35;;;5.43;;
19675;SDS011;39539;52.202;9.876;2024-02-04T01:18:48;7.63;;;6.93;;
19675;SDS011;39539;52.202;9.876;2024-02-04T01:21:13;8.75;;;7.95;;
19675;SDS011;39539;52.202;9.876;2024-02-04T01:23:38;8.23;;;7.60;;
19675;SDS011;39539;52.202;9.876;2024-02-04T01:26:04;8.13;;;7.50;;
19675;SDS011;39539;52.202;9.876;2024-02-04T01:28:29;8.30;;;7.60;;
19675;SDS011;39539;52.202;9.876;2024-02-04T01:30:55;8.30;;;7.68;;
19675;SDS011;39539;52.202;9.876;2024-02-04T01:33:20;7.38;;;6.75;;
19675;SDS011;39539;52.202;9.876;2024-02-04T01:35:45;7.63;;;6.90;;
19675;SDS011;39539;52.202;9.876;2024-02-04T01:38:11;7.32;;;6.82;;
19675;SDS011;39539;52.202;9.876;2024-02-04T01:40:36;7.20;;;6.60;;
19675;SDS011;39539;52.202;9.876;2024-02-04T01:43:01;7.47;;;6.60;;
19675;SDS011;39539;52.202;9.876;2024-02-04T01:45:27;7.03;;;6.43;;
19675;SDS011;39539;52.202;9.876;2024-02-04T01:47:53;6.72;;;6.18;;
19675;SDS011;39539;52.202;9.876;2024-02-04T01:50:19;7.05;;;6.35;;
19675;SDS011;39539;52.202;9.876;2024-02-04T01:52:44;6.53;;;6.00;;
19675;SDS011;39539;52.202;9.876;2024-02-04T01:55:10;6.57;;;6.00;;
19675;SDS011;39539;52.202;9.876;2024-02-04T01:57:36;6.53;;;6.03;;
19675;SDS011;39539;52.202;9.876;2024-02-04T02:00:02;7.05;;;6.55;;
19675;SDS011;39539;52.202;9.876;2024-02-04T02:02:29;7.57;;;6.97;;
19675;SDS011;39539;52.202;9.876;2024-02-04T02:04:56;7.90;;;7.30;;
19675;SDS011;39539;52.202;9.876;2024-02-04T02:07:22;9.38;;;8.68;;
19675;SDS011;39539;52.202;9.876;2024-02-04T02:09:52;10.40;;;9.32;;
19675;SDS011;39539;52.202;9.876;2024-02-04T02:12:27;12.25;;;11.25;;
19675;SDS011;39539;52.202;9.876;2024-02-04T02:17:57;12.73;;;11.75;;
19675;SDS011;39539;52.202;9.876;2024-02-04T02:21:04;12.68;;;11.57;;
19675;SDS011;39539;52.202;9.876;2024-02-04T02:23:30;12.90;;;12.00;;
19675;SDS011;39539;52.202;9.876;2024-02-04T02:25:56;12.85;;;11.73;;
19675;SDS011;39539;52.202;9.876;2024-02-04T02:28:23;12.35;;;11.32;;
19675;SDS011;39539;52.202;9.876;2024-02-04T02:30:48;12.70;;;11.68;;
19675;SDS011;39539;52.202;9.876;2024-02-04T02:33:13;12.00;;;11.10;;
19675;SDS011;39539;52.202;9.876;2024-02-04T02:35:39;13.20;;;12.13;;
19675;SDS011;39539;52.202;9.876;2024-02-04T02:38:12;12.10;;;11.07;;
19675;SDS011;39539;52.202;9.876;2024-02-04T02:40:47;11.18;;;10.23;;
19675;SDS011;39539;52.202;9.876;2024-02-04T02:43:15;11.10;;;10.20;;
19675;SDS011;39539;52.202;9.876;2024-02-04T02:45:41;9.20;;;8.40;;
19675;SDS011;39539;52.202;9.876;2024-02-04T02:48:07;9.77;;;8.98;;
19675;SDS011;39539;52.202;9.876;2024-02-04T02:50:34;9.68;;;8.80;;
19675;SDS011;39539;52.202;9.876;2024-02-04T02:53:00;8.98;;;8.18;;
19675;SDS011;39539;52.202;9.876;2024-02-04T02:55:25;9.43;;;8.52;;
19675;SDS011;39539;52.202;9.876;2024-02-04T02:57:51;9.35;;;8.40;;
19675;SDS011;39539;52.202;9.876;2024-02-04T03:00:16;8.27;;;7.45;;
19675;SDS011;39539;52.202;9.876;2024-02-04T03:02:42;8.32;;;7.50;;
19675;SDS011;39539;52.202;9.876;2024-02-04T03:05:07;7.65;;;6.95;;
19675;SDS011;39539;52.202;9.876;2024-02-04T03:07:33;7.65;;;6.95;;
19675;SDS011;39539;52.202;9.876;2024-02-04T03:09:58;7.60;;;6.90;;
19675;SDS011;39539;52.202;9.876;2024-02-04T03:12:24;7.80;;;7.10;;
19675;SDS011;39539;52.202;9.876;2024-02-04T03:14:49;7.93;;;7.13;;
19675;SDS011;39539;52.202;9.876;2024-02-04T03:17:14;8.25;;;7.60;;
19675;SDS011;39539;52.202;9.876;2024-02-04T03:19:40;8.15;;;7.53;;
19675;SDS011;39539;52.202;9.876;2024-02-04T03:22:05;8.05;;;7.25;;
19675;SDS011;39539;52.202;9.876;2024-02-04T03:24:30;8.45;;;7.60;;
19675;SDS011;39539;52.202;9.876;2024-02-04T03:26:56;8.25;;;7.55;;
19675;SDS011;39539;52.202;9.876;2024-02-04T03:29:22;8.73;;;8.02;;
19675;SDS011;39539;52.202;9.876;2024-02-04T03:31:47;8.88;;;8.18;;
19675;SDS011;39539;52.202;9.876;2024-02-04T03:34:12;9.50;;;8.70;;
19675;SDS011;39539;52.202;9.876;2024-02-04T03:36:38;9.70;;;8.90;;
19675;SDS011;39539;52.202;9.876;2024-02-04T03:39:06;10.07;;;9.27;;
19675;SDS011;39539;52.202;9.876;2024-02-04T03:41:31;10.18;;;9.30;;
19675;SDS011;39539;52.202;9.876;2024-02-04T03:43:56;10.82;;;9.95;;
19675;SDS011;39539;52.202;9.876;2024-02-04T03:46:22;11.05;;;10.13;;
19675;SDS011;39539;52.202;9.876;2024-02-04T03:48:47;11.23;;;10.25;;
19675;SDS011;39539;52.202;9.876;2024-02-04T03:51:16;11.20;;;10.30;;
19675;SDS011;39539;52.202;9.876;2024-02-04T03:53:42;10.70;;;9.90;;
19675;SDS011;39539;52.202;9.876;2024-02-04T03:56:08;10.48;;;9.68;;
19675;SDS011;39539;52.202;9.876;2024-02-04T03:58:33;10.68;;;9.98;;
19675;SDS011;39539;52.202;9.876;2024-02-04T04:00:58;10.18;;;9.48;;
19675;SDS011;39539;52.202;9.876;2024-02-04T04:03:24;9.30;;;8.60;;
19675;SDS011;39539;52.202;9.876;2024-02-04T04:05:51;9.82;;;9.10;;
19675;SDS011;39539;52.202;9.876;2024-02-04T04:08:16;9.60;;;8.90;;
19675;SDS011;39539;52.202;9.876;2024-02-04T04:10:43;10.35;;;9.52;;
19675;SDS011;39539;52.202;9.876;2024-02-04T04:13:08;9.82;;;9.07;;
19675;SDS011;39539;52.202;9.876;2024-02-04T04:15:33;9.98;;;9.15;;
19675;SDS011;39539;52.202;9.876;2024-02-04T04:17:59;9.23;;;8.55;;
19675;SDS011;39539;52.202;9.876;2024-02-04T04:20:24;9.00;;;8.25;;
19675;SDS011;39539;52.202;9.876;2024-02-04T04:22:49;8.73;;;7.93;;
19675;SDS011;39539;52.202;9.876;2024-02-04T04:25:15;9.45;;;8.82;;
19675;SDS011;39539;52.202;9.876;2024-02-04T04:27:41;8.73;;;8.02;;
19675;SDS011;39539;52.202;9.876;2024-02-04T04:30:07;9.25;;;8.55;;
19675;SDS011;39539;52.202;9.876;2024-02-04T04:32:33;8.80;;;8.20;;
19675;SDS011;39539;52.202;9.876;2024-02-04T04:34:59;8.55;;;7.85;;
19675;SDS011;39539;52.202;9.876;2024-02-04T04:37:24;8.35;;;7.75;;
19675;SDS011;39539;52.202;9.876;2024-02-04T04:39:49;7.95;;;7.45;;
19675;SDS011;39539;52.202;9.876;2024-02-04T04:42:15;7.88;;;7.30;;
19675;SDS011;39539;52.202;9.876;2024-02-04T04:44:40;7.85;;;7.25;;
19675;SDS011;39539;52.202;9.876;2024-02-04T04:47:05;7.88;;;7.30;;
19675;SDS011;39539;52.202;9.876;2024-02-04T04:49:31;7.90;;;7.30;;
19675;SDS011;39539;52.202;9.876;2024-02-04T04:51:56;7.57;;;7.07;;
19675;SDS011;39539;52.202;9.876;2024-02-04T04:54:22;7.10;;;6.50;;
19675;SDS011;39539;52.202;9.876;2024-02-04T04:56:47;6.82;;;6.25;;
19675;SDS011;39539;52.202;9.876;2024-02-04T04:59:13;6.95;;;6.45;;
19675;SDS011;39539;52.202;9.876;2024-02-04T05:01:46;6.78;;;6.28;;
19675;SDS011;39539;52.202;9.876;2024-02-04T05:04:14;6.07;;;5.57;;
19675;SDS011;39539;52.202;9.876;2024-02-04T05:06:40;5.53;;;5.13;;
19675;SDS011;39539;52.202;9.876;2024-02-04T05:09:06;6.22;;;5.72;;
19675;SDS011;39539;52.202;9.876;2024-02-04T05:11:31;6.05;;;5.63;;
19675;SDS011;39539;52.202;9.876;2024-02-04T05:13:56;5.95;;;5.53;;
19675;SDS011;39539;52.202;9.876;2024-02-04T05:16:22;5.63;;;5.22;;
19675;SDS011;39539;52.202;9.876;2024-02-04T05:18:47;4.65;;;4.25;;
19675;SDS011;39539;52.202;9.876;2024-02-04T05:21:12;4.38;;;4.05;;
19675;SDS011;39539;52.202;9.876;2024-02-04T05:23:38;4.28;;;3.88;;
19675;SDS011;39539;52.202;9.876;2024-02-04T05:26:03;4.28;;;3.97;;
19675;SDS011;39539;52.202;9.876;2024-02-04T05:28:29;4.28;;;3.88;;
19675;SDS011;39539;52.202;9.876;2024-02-04T05:30:55;4.07;;;3.78;;
19675;SDS011;39539;52.202;9.876;2024-02-04T05:33:20;4.28;;;3.72;;
19675;SDS011;39539;52.202;9.876;2024-02-04T05:35:46;4.30;;;3.95;;
19675;SDS011;39539;52.202;9.876;2024-02-04T05:38:11;3.83;;;3.63;;
19675;SDS011;39539;52.202;9.876;2024-02-04T05:40:36;4.00;;;3.70;;
19675;SDS011;39539;52.202;9.876;2024-02-04T05:43:02;3.50;;;3.30;;
19675;SDS011;39539;52.202;9.876;2024-02-04T05:45:32;3.72;;;3.42;;
19675;SDS011;39539;52.202;9.876;2024-02-04T05:47:58;3.88;;;3.47;;
19675;SDS011;39539;52.202;9.876;2024-02-04T05:50:23;3.50;;;3.30;;
19675;SDS011;39539;52.202;9.876;2024-02-04T05:52:49;3.67;;;3.47;;
19675;SDS011;39539;52.202;9.876;2024-02-04T05:55:14;3.70;;;3.40;;
19675;SDS011;39539;52.202;9.876;2024-02-04T05:57:39;3.97;;;3.65;;
19675;SDS011;39539;52.202;9.876;2024-02-04T06:00:05;4.10;;;3.80;;
19675;SDS011;39539;52.202;9.876;2024-02-04T06:02:33;3.72;;;3.42;;
19675;SDS011;39539;52.202;9.876;2024-02-04T06:04:58;3.75;;;3.55;;
19675;SDS011;39539;52.202;9.876;2024-02-04T06:07:23;3.33;;;3.05;;
19675;SDS011;39539;52.202;9.876;2024-02-04T06:09:49;2.85;;;2.50;;
19675;SDS011;39539;52.202;9.876;2024-02-04T06:12:14;3.10;;;2.80;;
19675;SDS011;39539;52.202;9.876;2024-02-04T06:14:39;2.70;;;2.40;;
19675;SDS011;39539;52.202;9.876;2024-02-04T06:17:05;2.67;;;2.30;;
19675;SDS011;39539;52.202;9.876;2024-02-04T06:19:33;3.40;;;2.47;;
19675;SDS011;39539;52.202;9.876;2024-02-04T06:21:59;2.47;;;2.00;;
19675;SDS011;39539;52.202;9.876;2024-02-04T06:24:25;2.72;;;2.00;;
19675;SDS011;39539;52.202;9.876;2024-02-04T06:26:50;2.30;;;2.00;;
19675;SDS011;39539;52.202;9.876;2024-02-04T06:29:15;3.10;;;2.15;;
19675;SDS011;39539;52.202;9.876;2024-02-04T06:31:43;2.30;;;2.10;;
19675;SDS011;39539;52.202;9.876;2024-02-04T06:34:09;2.60;;;2.40;;
19675;SDS011;39539;52.202;9.876;2024-02-04T06:36:34;2.33;;;2.08;;
19675;SDS011;39539;52.202;9.876;2024-02-04T06:39:00;3.20;;;2.78;;
19675;SDS011;39539;52.202;9.876;2024-02-04T06:41:25;2.28;;;2.00;;
19675;SDS011;39539;52.202;9.876;2024-02-04T06:43:50;2.27;;;2.10;;
19675;SDS011;39539;52.202;9.876;2024-02-04T06:46:23;2.40;;;2.10;;
19675;SDS011;39539;52.202;9.876;2024-02-04T06:48:49;2.85;;;2.28;;
19675;SDS011;39539;52.202;9.876;2024-02-04T06:51:15;2.10;;;2.00;;
19675;SDS011;39539;52.202;9.876;2024-02-04T06:53:40;2.47;;;2.28;;
19675;SDS011;39539;52.202;9.876;2024-02-04T06:56:06;2.78;;;2.00;;
19675;SDS011;39539;52.202;9.876;2024-02-04T06:58:32;2.17;;;1.90;;
19675;SDS011;39539;52.202;9.876;2024-02-04T07:00:57;2.58;;;1.90;;
19675;SDS011;39539;52.202;9.876;2024-02-04T07:03:22;2.20;;;2.10;;
19675;SDS011;39539;52.202;9.876;2024-02-04T07:05:48;2.75;;;2.53;;
19675;SDS011;39539;52.202;9.876;2024-02-04T07:08:13;2.40;;;2.20;;
19675;SDS011;39539;52.202;9.876;2024-02-04T07:10:39;2.30;;;2.10;;
19675;SDS011;39539;52.202;9.876;2024-02-04T07:13:04;2.67;;;1.88;;
19675;SDS011;39539;52.202;9.876;2024-02-04T07:15:29;2.15;;;1.98;;
19675;SDS011;39539;52.202;9.876;2024-02-04T07:17:55;2.80;;;1.98;;
19675;SDS011;39539;52.202;9.876;2024-02-04T07:20:20;1.90;;;1.30;;
19675;SDS011;39539;52.202;9.876;2024-02-04T07:22:45;1.98;;;1.45;;
19675;SDS011;39539;52.202;9.876;2024-02-04T07:25:11;1.75;;;1.50;;
19675;SDS011;39539;52.202;9.876;2024-02-04T07:27:36;1.98;;;1.33;;
19675;SDS011;39539;52.202;9.876;2024-02-04T07:30:02;1.58;;;1.48;;
19675;SDS011;39539;52.202;9.876;2024-02-04T07:32:28;1.80;;;1.52;;
19675;SDS011;39539;52.202;9.876;2024-02-04T07:34:54;1.77;;;1.48;;
19675;SDS011;39539;52.202;9.876;2024-02-04T07:37:19;1.33;;;1.23;;
19675;SDS011;39539;52.202;9.876;2024-02-04T07:39:44;1.98;;;1.67;;
19675;SDS011;39539;52.202;9.876;2024-02-04T07:42:10;2.70;;;1.73;;
19675;SDS011;39539;52.202;9.876;2024-02-04T07:44:35;2.20;;;1.70;;
19675;SDS011;39539;52.202;9.876;2024-02-04T07:47:01;2.15;;;1.83;;
19675;SDS011;39539;52.202;9.876;2024-02-04T07:49:26;3.35;;;1.80;;
19675;SDS011;39539;52.202;9.876;2024-02-04T07:51:51;2.65;;;1.90;;
19675;SDS011;39539;52.202;9.876;2024-02-04T07:54:17;3.25;;;1.80;;
19675;SDS011;39539;52.202;9.876;2024-02-04T07:56:42;3.53;;;1.73;;
19675;SDS011;39539;52.202;9.876;2024-02-04T07:59:07;2.35;;;2.10;;
19675;SDS011;39539;52.202;9.876;2024-02-04T08:01:33;1.98;;;1.65;;
19675;SDS011;39539;52.202;9.876;2024-02-04T08:03:58;2.38;;;1.63;;
19675;SDS011;39539;52.202;9.876;2024-02-04T08:06:24;2.00;;;1.60;;
19675;SDS011;39539;52.202;9.876;2024-02-04T08:08:50;2.00;;;1.75;;
19675;SDS011;39539;52.202;9.876;2024-02-04T08:11:18;1.70;;;1.40;;
19675;SDS011;39539;52.202;9.876;2024-02-04T08:13:44;3.67;;;1.60;;
19675;SDS011;39539;52.202;9.876;2024-02-04T08:16:09;2.58;;;1.48;;
19675;SDS011;39539;52.202;9.876;2024-02-04T08:18:35;3.10;;;1.75;;
19675;SDS011;39539;52.202;9.876;2024-02-04T08:21:00;2.80;;;1.70;;
19675;SDS011;39539;52.202;9.876;2024-02-04T08:23:26;2.78;;;1.50;;
19675;SDS011;39539;52.202;9.876;2024-02-04T08:25:51;2.85;;;1.58;;
19675;SDS011;39539;52.202;9.876;2024-02-04T08:28:16;2.08;;;1.25;;
19675;SDS011;39539;52.202;9.876;2024-02-04T08:30:42;2.67;;;1.40;;
19675;SDS011;39539;52.202;9.876;2024-02-04T08:33:07;2.08;;;1.35;;
19675;SDS011;39539;52.202;9.876;2024-02-04T08:35:33;2.90;;;1.50;;
19675;SDS011;39539;52.202;9.876;2024-02-04T08:37:59;2.10;;;1.52;;
19675;SDS011;39539;52.202;9.876;2024-02-04T08:40:24;3.33;;;1.50;;
19675;SDS011;39539;52.202;9.876;2024-02-04T08:42:49;3.35;;;1.67;;
19675;SDS011;39539;52.202;9.876;2024-02-04T08:45:15;3.72;;;2.05;;
19675;SDS011;39539;52.202;9.876;2024-02-04T08:47:40;2.00;;;1.27;;
19675;SDS011;39539;52.202;9.876;2024-02-04T08:50:06;3.35;;;1.67;;
19675;SDS011;39539;52.202;9.876;2024-02-04T08:52:32;4.13;;;1.55;;
19675;SDS011;39539;52.202;9.876;2024-02-04T08:54:57;3.63;;;1.40;;
19675;SDS011;39539;52.202;9.876;2024-02-04T08:57:24;4.30;;;1.60;;
19675;SDS011;39539;52.202;9.876;2024-02-04T08:59:50;4.82;;;1.63;;
19675;SDS011;39539;52.202;9.876;2024-02-04T09:02:15;3.85;;;1.65;;
19675;SDS011;39539;52.202;9.876;2024-02-04T09:04:40;3.05;;;1.30;;
19675;SDS011;39539;52.202;9.876;2024-02-04T09:07:06;3.45;;;1.60;;
19675;SDS011;39539;52.202;9.876;2024-02-04T09:09:32;2.80;;;1.40;;
19675;SDS011;39539;52.202;9.876;2024-02-04T09:11:58;2.30;;;1.35;;
19675;SDS011;39539;52.202;9.876;2024-02-04T09:14:23;4.35;;;1.85;;
19675;SDS011;39539;52.202;9.876;2024-02-04T09:16:48;3.67;;;1.75;;
19675;SDS011;39539;52.202;9.876;2024-02-04T09:19:14;4.78;;;1.75;;
19675;SDS011;39539;52.202;9.876;2024-02-04T09:21:39;3.53;;;1.70;;
19675;SDS011;39539;52.202;9.876;2024-02-04T09:24:04;4.35;;;1.85;;
19675;SDS011;39539;52.202;9.876;2024-02-04T09:26:30;3.38;;;1.58;;
19675;SDS011;39539;52.202;9.876;2024-02-04T09:28:55;3.85;;;1.67;;
19675;SDS011;39539;52.202;9.876;2024-02-04T09:31:21;5.03;;;2.13;;
19675;SDS011;39539;52.202;9.876;2024-02-04T09:33:46;3.58;;;1.77;;
19675;SDS011;39539;52.202;9.876;2024-02-04T09:36:11;2.80;;;1.67;;
19675;SDS011;39539;52.202;9.876;2024-02-04T09:38:37;2.53;;;1.60;;
19675;SDS011;39539;52.202;9.876;2024-02-04T09:41:02;3.70;;;1.60;;
19675;SDS011;39539;52.202;9.876;2024-02-04T09:43:33;3.72;;;1.60;;
19675;SDS011;39539;52.202;9.876;2024-02-04T09:46:00;3.75;;;1.80;;
19675;SDS011;39539;52.202;9.876;2024-02-04T09:48:26;4.25;;;1.92;;
19675;SDS011;39539;52.202;9.876;2024-02-04T09:50:56;4.15;;;2.00;;
19675;SDS011;39539;52.202;9.876;2024-02-04T09:53:25;2.72;;;1.52;;
19675;SDS011;39539;52.202;9.876;2024-02-04T09:56:07;3.38;;;2.00;;
19675;SDS011;39539;52.202;9.876;2024-02-04T09:58:34;3.90;;;2.42;;
19675;SDS011;39539;52.202;9.876;2024-02-04T10:00:59;3.85;;;2.40;;
19675;SDS011;39539;52.202;9.876;2024-02-04T10:03:25;3.50;;;1.75;;
19675;SDS011;39539;52.202;9.876;2024-02-04T10:05:51;3.58;;;1.98;;
19675;SDS011;39539;52.202;9.876;2024-02-04T10:08:17;2.90;;;1.77;;
19675;SDS011;39539;52.202;9.876;2024-02-04T10:10:42;2.83;;;1.60;;
19675;SDS011;39539;52.202;9.876;2024-02-04T10:13:08;3.80;;;1.80;;
19675;SDS011;39539;52.202;9.876;2024-02-04T10:15:34;5.10;;;2.25;;
19675;SDS011;39539;52.202;9.876;2024-02-04T10:18:02;4.18;;;1.95;;
19675;SDS011;39539;52.202;9.876;2024-02-04T10:20:29;4.97;;;2.10;;
19675;SDS011;39539;52.202;9.876;2024-02-04T10:22:54;3.50;;;1.50;;
19675;SDS011;39539;52.202;9.876;2024-02-04T10:25:20;3.75;;;2.08;;
19675;SDS011;39539;52.202;9.876;2024-02-04T10:27:46;5.70;;;2.33;;
19675;SDS011;39539;52.202;9.876;2024-02-04T10:30:12;6.07;;;2.03;;
19675;SDS011;39539;52.202;9.876;2024-02-04T10:32:38;3.85;;;1.83;;
19675;SDS011;39539;52.202;9.876;2024-02-04T10:35:03;3.03;;;1.90;;
19675;SDS011;39539;52.202;9.876;2024-02-04T10:37:29;3.33;;;1.52;;
19675;SDS011;39539;52.202;9.876;2024-02-04T10:39:55;3.53;;;1.83;;
19675;SDS011;39539;52.202;9.876;2024-02-04T10:42:24;5.85;;;2.10;;
19675;SDS011;39539;52.202;9.876;2024-02-04T10:44:54;2.75;;;1.67;;
19675;SDS011;39539;52.202;9.876;2024-02-04T10:47:25;3.58;;;2.00;;
19675;SDS011;39539;52.202;9.876;2024-02-04T10:49:58;4.55;;;1.73;;
19675;SDS011;39539;52.202;9.876;2024-02-04T10:52:25;4.22;;;2.10;;
19675;SDS011;39539;52.202;9.876;2024-02-04T10:54:52;4.97;;;2.00;;
19675;SDS011;39539;52.202;9.876;2024-02-04T10:57:20;2.13;;;1.55;;
19675;SDS011;39539;52.202;9.876;2024-02-04T10:59:51;4.55;;;1.83;;
19675;SDS011;39539;52.202;9.876;2024-02-04T11:02:17;3.88;;;1.95;;
19675;SDS011;39539;52.202;9.876;2024-02-04T11:04:44;4.20;;;1.60;;
19675;SDS011;39539;52.202;9.876;2024-02-04T11:07:14;3.78;;;1.85;;
19675;SDS011;39539;52.202;9.876;2024-02-04T11:09:42;4.55;;;2.35;;
19675;SDS011;39539;52.202;9.876;2024-02-04T11:12:09;3.92;;;1.75;;
19675;SDS011;39539;52.202;9.876;2024-02-04T11:14:38;2.42;;;1.40;;
19675;SDS011;39539;52.202;9.876;2024-02-04T11:25:54;2.63;;;1.70;;
19675;SDS011;39539;52.202;9.876;2024-02-04T11:28:22;3.70;;;1.92;;
19675;SDS011;39539;52.202;9.876;2024-02-04T11:30:48;3.75;;;1.75;;
19675;SDS011;39539;52.202;9.876;2024-02-04T11:33:17;3.50;;;1.63;;
19675;SDS011;39539;52.202;9.876;2024-02-04T11:35:44;2.70;;;1.60;;
19675;SDS011;39539;52.202;9.876;2024-02-04T11:38:09;4.03;;;1.83;;
19675;SDS011;39539;52.202;9.876;2024-02-04T11:40:39;3.38;;;1.58;;
19675;SDS011;39539;52.202;9.876;2024-02-04T11:43:11;2.70;;;1.60;;
19675;SDS011;39539;52.202;9.876;2024-02-04T11:45:40;3.08;;;1.75;;
19675;SDS011;39539;52.202;9.876;2024-02-04T11:48:07;3.60;;;1.63;;
19675;SDS011;39539;52.202;9.876;2024-02-04T11:50:34;3.63;;;1.88;;
19675;SDS011;39539;52.202;9.876;2024-02-04T11:53:07;3.72;;;1.70;;
19675;SDS011;39539;52.202;9.876;2024-02-04T11:55:35;4.22;;;1.58;;
19675;SDS011;39539;52.202;9.876;2024-02-04T11:58:02;3.33;;;1.45;;
19675;SDS011;39539;52.202;9.876;2024-02-04T12:00:31;2.13;;;1.60;;
19675;SDS011;39539;52.202;9.876;2024-02-04T12:03:03;3.67;;;1.25;;
19675;SDS011;39539;52.202;9.876;2024-02-04T12:05:33;3.22;;;1.45;;
19675;SDS011;39539;52.202;9.876;2024-02-04T12:08:03;2.38;;;1.27;;
19675;SDS011;39539;52.202;9.876;2024-02-04T12:10:33;3.30;;;1.42;;
19675;SDS011;39539;52.202;9.876;2024-02-04T12:13:02;2.67;;;1.30;;
19675;SDS011;39539;52.202;9.876;2024-02-04T12:15:28;3.03;;;1.40;;
19675;SDS011;39539;52.202;9.876;2024-02-04T12:17:55;3.97;;;1.55;;
19675;SDS011;39539;52.202;9.876;2024-02-04T12:20:20;3.10;;;1.77;;
19675;SDS011;39539;52.202;9.876;2024-02-04T12:22:46;2.67;;;1.30;;
19675;SDS011;39539;52.202;9.876;2024-02-04T12:25:13;1.85;;;1.20;;
19675;SDS011;39539;52.202;9.876;2024-02-04T12:27:38;2.70;;;1.50;;
19675;SDS011;39539;52.202;9.876;2024-02-04T12:30:04;4.10;;;1.58;;
19675;SDS011;39539;52.202;9.876;2024-02-04T12:32:30;3.38;;;1.25;;
19675;SDS011;39539;52.202;9.876;2024-02-04T12:34:56;2.55;;;1.10;;
19675;SDS011;39539;52.202;9.876;2024-02-04T12:37:21;2.53;;;1.40;;
19675;SDS011;39539;52.202;9.876;2024-02-04T12:39:47;2.33;;;1.40;;
19675;SDS011;39539;52.202;9.876;2024-02-04T12:42:16;2.38;;;1.10;;
19675;SDS011;39539;52.202;9.876;2024-02-04T12:44:44;1.98;;;1.08;;
19675;SDS011;39539;52.202;9.876;2024-02-04T12:47:10;1.98;;;1.30;;
19675;SDS011;39539;52.202;9.876;2024-02-04T12:49:35;1.70;;;1.20;;
19675;SDS011;39539;52.202;9.876;2024-02-04T12:52:05;3.10;;;1.10;;
19675;SDS011;39539;52.202;9.876;2024-02-04T12:54:39;2.63;;;1.30;;
19675;SDS011;39539;52.202;9.876;2024-02-04T12:57:06;1.55;;;1.20;;
19675;SDS011;39539;52.202;9.876;2024-02-04T12:59:32;1.95;;;1.35;;
19675;SDS011;39539;52.202;9.876;2024-02-04T13:02:02;2.35;;;1.10;;
19675;SDS011;39539;52.202;9.876;2024-02-04T13:04:34;2.28;;;1.15;;
19675;SDS011;39539;52.202;9.876;2024-02-04T13:07:07;2.10;;;1.20;;
19675;SDS011;39539;52.202;9.876;2024-02-04T13:09:43;1.92;;;1.13;;
19675;SDS011;39539;52.202;9.876;2024-02-04T13:12:10;1.80;;;1.13;;
19675;SDS011;39539;52.202;9.876;2024-02-04T13:14:37;1.98;;;1.30;;
19675;SDS011;39539;52.202;9.876;2024-02-04T13:17:03;1.80;;;1.20;;
19675;SDS011;39539;52.202;9.876;2024-02-04T13:19:35;1.27;;;1.17;;
19675;SDS011;39539;52.202;9.876;2024-02-04T13:22:03;2.50;;;1.40;;
19675;SDS011;39539;52.202;9.876;2024-02-04T13:24:32;1.50;;;1.20;;
19675;SDS011;39539;52.202;9.876;2024-02-04T13:26:58;2.55;;;1.33;;
19675;SDS011;39539;52.202;9.876;2024-02-04T13:29:25;1.90;;;1.30;;
19675;SDS011;39539;52.202;9.876;2024-02-04T13:31:51;2.85;;;1.52;;
19675;SDS011;39539;52.202;9.876;2024-02-04T13:34:17;2.15;;;1.40;;
19675;SDS011;39539;52.202;9.876;2024-02-04T13:36:42;1.60;;;1.30;;
19675;SDS011;39539;52.202;9.876;2024-02-04T13:39:08;2.25;;;1.40;;
19675;SDS011;39539;52.202;9.876;2024-02-04T13:41:34;2.47;;;1.30;;
19675;SDS011;39539;52.202;9.876;2024-02-04T13:44:00;1.35;;;1.25;;
19675;SDS011;39539;52.202;9.876;2024-02-04T13:46:26;3.97;;;1.85;;
19675;SDS011;39539;52.202;9.876;2024-02-04T13:48:51;3.35;;;1.70;;
19675;SDS011;39539;52.202;9.876;2024-02-04T13:51:17;1.75;;;1.45;;
19675;SDS011;39539;52.202;9.876;2024-02-04T13:53:42;1.52;;;1.33;;
19675;SDS011;39539;52.202;9.876;2024-02-04T13:56:08;2.10;;;1.48;;
19675;SDS011;39539;52.202;9.876;2024-02-04T13:58:33;2.67;;;1.80;;
19675;SDS011;39539;52.202;9.876;2024-02-04T14:00:58;2.33;;;1.80;;
19675;SDS011;39539;52.202;9.876;2024-02-04T14:03:24;2.40;;;1.80;;
19675;SDS011;39539;52.202;9.876;2024-02-04T14:05:50;2.10;;;1.60;;
19675;SDS011;39539;52.202;9.876;2024-02-04T14:08:16;2.55;;;1.60;;
19675;SDS011;39539;52.202;9.876;2024-02-04T14:10:41;2.08;;;1.80;;
19675;SDS011;39539;52.202;9.876;2024-02-04T14:13:07;3.20;;;1.83;;
19675;SDS011;39539;52.202;9.876;2024-02-04T14:15:33;2.10;;;1.90;;
19675;SDS011;39539;52.202;9.876;2024-02-04T14:17:59;3.08;;;2.10;;
19675;SDS011;39539;52.202;9.876;2024-02-04T14:20:24;2.42;;;2.10;;
19675;SDS011;39539;52.202;9.876;2024-02-04T14:22:50;2.25;;;2.08;;
19675;SDS011;39539;52.202;9.876;2024-02-04T14:25:18;2.38;;;2.17;;
19675;SDS011;39539;52.202;9.876;2024-02-04T14:27:44;2.50;;;2.30;;
19675;SDS011;39539;52.202;9.876;2024-02-04T14:30:10;3.03;;;2.75;;
19675;SDS011;39539;52.202;9.876;2024-02-04T14:32:35;3.10;;;2.30;;
19675;SDS011;39539;52.202;9.876;2024-02-04T14:35:01;2.60;;;2.20;;
19675;SDS011;39539;52.202;9.876;2024-02-04T14:37:29;3.05;;;2.60;;
19675;SDS011;39539;52.202;9.876;2024-02-04T14:39:57;3.22;;;2.60;;
19675;SDS011;39539;52.202;9.876;2024-02-04T14:42:25;3.10;;;2.30;;
19675;SDS011;39539;52.202;9.876;2024-02-04T14:44:51;3.08;;;2.80;;
19675;SDS011;39539;52.202;9.876;2024-02-04T14:47:17;2.30;;;1.98;;
19675;SDS011;39539;52.202;9.876;2024-02-04T14:49:42;2.60;;;2.40;;
19675;SDS011;39539;52.202;9.876;2024-02-04T14:52:08;3.25;;;2.42;;